Time;durP1;ratioP1;P1;durP2;ratioP2;P2;SDS_P1;SDS_P2;PMS_P1;PMS_P2;Temp;Humidity;BMP_temperature;BMP_pressure;BME280_temperature;BME280_humidity;BME280_pressure;Samples;Min_cycle;Max_cycle;Signal;HPM_P1;HPM_P2
2023/09/28 05:47:44;;;;;;;4.73;3.50;;;;;;;;;;10555561;27;20466;-85
2023/09/28 05:52:47;;;;;;;4.78;3.35;;;;;;;;;;10580089;28;20035;-86
2023/09/28 05:57:48;;;;;;;4.07;2.90;;;;;;;;;;10540824;28;20147;-85
2023/09/28 06:02:49;;;;;;;5.13;2.88;;;;;;;;;;10545348;28;20024;-86
2023/09/28 06:07:50;;;;;;;4.97;3.25;;;;;;;;;;10580319;28;20040;-86
2023/09/28 06:12:51;;;;;;;3.80;2.85;;;;;;;;;;10581235;28;20447;-86
2023/09/28 06:17:52;;;;;;;3.38;2.70;;;;;;;;;;10546051;28;20021;-86
2023/09/28 06:22:53;;;;;;;3.97;2.67;;;;;;;;;;10541977;28;20020;-86
2023/09/28 06:27:54;;;;;;;5.43;3.10;;;;;;;;;;10541352;28;20027;-87
2023/09/28 06:32:55;;;;;;;4.90;3.28;;;;;;;;;;10540922;28;20477;-86
2023/09/28 06:37:56;;;;;;;3.70;3.03;;;;;;;;;;10543741;28;20101;-86
2023/09/28 06:42:57;;;;;;;7.00;4.20;;;;;;;;;;10543889;28;20059;-86
2023/09/28 06:47:59;;;;;;;4.32;3.50;;;;;;;;;;10549806;28;20032;-87
2023/09/28 06:53:00;;;;;;;4.93;3.83;;;;;;;;;;10555159;28;20020;-86
2023/09/28 06:58:01;;;;;;;5.20;3.70;;;;;;;;;;10530646;28;20062;-85
2023/09/28 07:03:02;;;;;;;5.53;3.40;;;;;;;;;;10516354;28;20024;-84
2023/09/28 07:08:05;;;;;;;4.85;3.90;;;;;;;;;;10546719;28;20034;-81
2023/09/28 07:13:07;;;;;;;6.15;4.20;;;;;;;;;;10515745;28;20035;-82
2023/09/28 07:18:08;;;;;;;7.32;4.18;;;;;;;;;;10510312;28;20023;-82
2023/09/28 07:23:09;;;;;;;7.40;3.95;;;;;;;;;;10511612;28;20024;-82
2023/09/28 07:28:11;;;;;;;6.22;5.00;;;;;;;;;;10509303;28;20043;-82
2023/09/28 07:33:13;;;;;;;6.32;4.78;;;;;;;;;;10513122;28;20025;-82
2023/09/28 07:38:14;;;;;;;5.95;4.63;;;;;;;;;;10508015;28;20016;-83
2023/09/28 07:43:15;;;;;;;9.98;4.95;;;;;;;;;;10509628;28;20032;-82
2023/09/28 07:48:16;;;;;;;7.80;4.97;;;;;;;;;;10511306;28;20028;-82
2023/09/28 07:53:17;;;;;;;6.68;5.15;;;;;;;;;;10522926;28;20430;-83
2023/09/28 07:58:19;;;;;;;6.90;4.80;;;;;;;;;;10545161;28;20033;-81
2023/09/28 08:03:20;;;;;;;10.85;5.65;;;;;;;;;;10508316;28;20380;-81
2023/09/28 08:08:21;;;;;;;8.27;5.25;;;;;;;;;;10505267;28;20028;-81
2023/09/28 08:13:23;;;;;;;7.45;4.65;;;;;;;;;;10508183;28;20032;-82
2023/09/28 08:18:26;;;;;;;7.80;5.07;;;;;;;;;;10503957;28;20024;-82
2023/09/28 08:23:27;;;;;;;6.38;5.13;;;;;;;;;;10504736;28;20391;-82
2023/09/28 08:28:28;;;;;;;8.43;5.10;;;;;;;;;;10506740;28;20028;-82
2023/09/28 08:33:30;;;;;;;7.78;4.80;;;;;;;;;;10506358;28;20032;-82
2023/09/28 08:38:31;;;;;;;10.25;4.63;;;;;;;;;;10508633;28;20016;-82
2023/09/28 08:43:35;;;;;;;6.43;4.10;;;;;;;;;;10516895;28;20044;-83
2023/09/28 08:48:40;;;;;;;7.30;4.50;;;;;;;;;;10526698;28;20025;-82
2023/09/28 08:53:43;;;;;;;8.82;4.28;;;;;;;;;;10545892;28;20041;-83
2023/09/28 08:58:44;;;;;;;7.82;4.65;;;;;;;;;;10523338;28;20024;-83
2023/09/28 09:03:47;;;;;;;7.75;4.47;;;;;;;;;;10515424;28;20028;-84
2023/09/28 09:08:49;;;;;;;5.85;4.10;;;;;;;;;;10512011;28;20395;-83
2023/09/28 09:13:51;;;;;;;7.88;4.60;;;;;;;;;;10508347;28;20031;-84
2023/09/28 09:18:53;;;;;;;10.63;4.95;;;;;;;;;;10506322;28;20069;-84
2023/09/28 09:24:01;;;;;;;7.97;4.53;;;;;;;;;;10506305;28;20032;-84
2023/09/28 09:29:03;;;;;;;9.10;4.60;;;;;;;;;;10506763;28;20521;-84
2023/09/28 09:34:05;;;;;;;8.38;4.60;;;;;;;;;;10507425;28;20029;-84
2023/09/28 09:39:08;;;;;;;10.27;6.55;;;;;;;;;;10506232;28;20400;-85
2023/09/28 09:44:11;;;;;;;7.03;4.68;;;;;;;;;;10513118;28;20163;-84
2023/09/28 09:49:12;;;;;;;8.20;4.40;;;;;;;;;;10528033;28;20058;-82
2023/09/28 09:54:14;;;;;;;8.00;4.20;;;;;;;;;;10540162;28;20039;-83
2023/09/28 09:59:16;;;;;;;8.63;4.32;;;;;;;;;;10537209;28;20020;-82
2023/09/28 10:04:18;;;;;;;9.73;5.15;;;;;;;;;;10539229;28;20029;-84
2023/09/28 10:09:20;;;;;;;8.88;5.18;;;;;;;;;;10534124;28;20033;-82
2023/09/28 10:14:21;;;;;;;13.55;5.43;;;;;;;;;;10513873;28;20177;-82
2023/09/28 10:19:24;;;;;;;8.60;4.63;;;;;;;;;;10503401;28;20035;-82
2023/09/28 10:24:30;;;;;;;8.13;4.57;;;;;;;;;;10504887;28;20186;-83
2023/09/28 10:29:32;;;;;;;8.48;4.80;;;;;;;;;;10505482;28;20025;-82
2023/09/28 10:34:33;;;;;;;8.00;4.50;;;;;;;;;;10510745;28;20447;-81
2023/09/28 10:39:34;;;;;;;8.68;4.55;;;;;;;;;;10510299;28;20052;-82
2023/09/28 10:44:45;;;;;;;8.30;4.38;;;;;;;;;;10509361;28;20079;-83
2023/09/28 10:49:46;;;;;;;7.78;4.20;;;;;;;;;;10514906;28;20452;-82
2023/09/28 10:54:47;;;;;;;6.00;3.80;;;;;;;;;;10515340;28;20044;-83
2023/09/28 10:59:48;;;;;;;6.55;3.97;;;;;;;;;;10517108;28;20064;-82
2023/09/28 11:04:49;;;;;;;9.48;4.22;;;;;;;;;;10517484;28;20537;-81
2023/09/28 11:09:51;;;;;;;6.97;4.38;;;;;;;;;;10525507;28;20110;-82
2023/09/28 11:14:54;;;;;;;6.85;4.80;;;;;;;;;;10512788;28;20028;-81
2023/09/28 11:19:56;;;;;;;9.48;6.07;;;;;;;;;;10509295;28;20025;-81
2023/09/28 11:24:57;;;;;;;7.82;6.22;;;;;;;;;;10508797;28;20029;-81
2023/09/28 11:29:59;;;;;;;11.93;6.30;;;;;;;;;;10511914;28;20016;-81
2023/09/28 11:35:00;;;;;;;8.85;4.80;;;;;;;;;;10539060;28;20024;-81
2023/09/28 11:40:03;;;;;;;9.98;5.88;;;;;;;;;;10536367;28;20043;-81
2023/09/28 11:45:06;;;;;;;11.18;5.50;;;;;;;;;;10511342;28;20484;-80
2023/09/28 11:50:08;;;;;;;8.57;5.18;;;;;;;;;;10510462;28;20093;-81
2023/09/28 11:55:22;;;;;;;8.48;5.07;;;;;;;;;;10508260;28;20370;-81
2023/09/28 12:00:24;;;;;;;8.65;5.15;;;;;;;;;;10432591;22;20044;-82
2023/09/28 12:05:25;;;;;;;7.57;4.28;;;;;;;;;;10389694;28;20030;-81
2023/09/28 12:10:27;;;;;;;8.02;4.63;;;;;;;;;;10389075;28;20120;-80
2023/09/28 12:15:29;;;;;;;7.50;4.40;;;;;;;;;;10384280;28;20034;-80
2023/09/28 12:20:31;;;;;;;7.30;4.50;;;;;;;;;;10388164;28;20072;-81
2023/09/28 12:25:34;;;;;;;5.93;3.78;;;;;;;;;;10389229;28;20098;-86
2023/09/28 12:30:38;;;;;;;6.30;3.80;;;;;;;;;;10392121;28;20152;-86
2023/09/28 12:35:39;;;;;;;4.60;3.22;;;;;;;;;;10401848;28;20022;-84
2023/09/28 12:40:41;;;;;;;7.70;3.40;;;;;;;;;;10393934;28;20131;-85
2023/09/28 12:45:44;;;;;;;6.57;3.40;;;;;;;;;;10389396;28;20030;-84
2023/09/28 12:50:46;;;;;;;8.52;4.63;;;;;;;;;;10390297;28;20029;-85
2023/09/28 12:55:49;;;;;;;7.10;3.60;;;;;;;;;;10386416;28;20121;-85
2023/09/28 13:00:50;;;;;;;5.88;3.00;;;;;;;;;;10386162;28;20073;-85
2023/09/28 13:05:51;;;;;;;5.32;3.30;;;;;;;;;;10386719;28;20052;-84
2023/09/28 13:10:53;;;;;;;7.35;3.58;;;;;;;;;;10389137;28;20018;-85
2023/09/28 13:16:00;;;;;;;6.78;3.80;;;;;;;;;;10386138;28;20073;-84
2023/09/28 13:21:01;;;;;;;5.72;3.60;;;;;;;;;;10387397;28;20125;-84
2023/09/28 13:26:04;;;;;;;6.00;3.30;;;;;;;;;;10386318;28;20026;-84
2023/09/28 13:31:07;;;;;;;5.35;3.63;;;;;;;;;;10389132;28;20025;-84
2023/09/28 13:36:08;;;;;;;6.05;3.28;;;;;;;;;;10387686;28;20026;-84
2023/09/28 13:41:11;;;;;;;8.05;3.70;;;;;;;;;;10387592;28;20026;-84
2023/09/28 13:46:12;;;;;;;9.00;5.47;;;;;;;;;;10384428;28;20367;-84
2023/09/28 13:51:14;;;;;;;6.82;5.18;;;;;;;;;;10386052;28;20477;-84
2023/09/28 13:56:15;;;;;;;6.70;4.53;;;;;;;;;;10387405;28;20152;-84
2023/09/28 14:01:17;;;;;;;8.65;4.35;;;;;;;;;;10385177;28;20060;-85
2023/09/28 14:06:18;;;;;;;6.88;4.70;;;;;;;;;;10388817;28;20072;-84
2023/09/28 14:11:21;;;;;;;7.35;3.80;;;;;;;;;;10394748;28;20429;-83
2023/09/28 14:16:24;;;;;;;7.93;4.55;;;;;;;;;;10394538;28;20025;-85
2023/09/28 14:21:25;;;;;;;7.57;4.15;;;;;;;;;;10395233;28;20113;-84
2023/09/28 14:26:27;;;;;;;7.28;4.07;;;;;;;;;;10395426;28;20030;-83
2023/09/28 14:31:28;;;;;;;9.20;5.60;;;;;;;;;;10396735;28;20018;-83
2023/09/28 14:36:29;;;;;;;6.03;4.25;;;;;;;;;;10397568;28;20113;-84
2023/09/28 14:41:32;;;;;;;6.78;4.05;;;;;;;;;;10393872;28;20496;-84
2023/09/28 14:46:33;;;;;;;6.30;4.05;;;;;;;;;;10391872;28;20180;-84
2023/09/28 14:51:34;;;;;;;5.70;3.58;;;;;;;;;;10388672;28;20088;-84
2023/09/28 14:56:39;;;;;;;7.47;4.20;;;;;;;;;;10418476;28;20034;-83
2023/09/28 15:01:40;;;;;;;8.30;3.90;;;;;;;;;;10417818;28;20099;-83
2023/09/28 15:06:45;;;;;;;9.32;3.95;;;;;;;;;;10408328;28;20052;-84
2023/09/28 15:11:53;;;;;;;7.88;4.05;;;;;;;;;;10395424;28;20022;-84
2023/09/28 15:17:03;;;;;;;5.97;3.50;;;;;;;;;;10376808;28;20115;-86
2023/09/28 15:22:21;;;;;;;10.32;4.03;;;;;;;;;;10393485;28;20026;-87
2023/09/28 15:27:27;;;;;;;10.60;4.03;;;;;;;;;;10394396;28;20030;-85
2023/09/28 15:32:28;;;;;;;8.30;4.05;;;;;;;;;;10393955;28;20521;-84
2023/09/28 15:37:29;;;;;;;7.70;3.65;;;;;;;;;;10394712;28;20041;-84
2023/09/28 15:42:31;;;;;;;6.80;3.60;;;;;;;;;;10395693;28;20049;-85
2023/09/28 15:47:32;;;;;;;5.57;3.70;;;;;;;;;;10393672;28;20030;-85
2023/09/28 15:52:34;;;;;;;7.90;3.70;;;;;;;;;;10393252;28;20061;-85
2023/09/28 15:57:35;;;;;;;5.57;3.42;;;;;;;;;;10393241;28;20030;-85
2023/09/28 16:02:36;;;;;;;8.23;3.35;;;;;;;;;;10392664;28;20074;-85
2023/09/28 16:07:38;;;;;;;5.78;3.50;;;;;;;;;;10388778;28;20041;-85
2023/09/28 16:12:39;;;;;;;7.25;3.60;;;;;;;;;;10389869;28;20116;-84
2023/09/28 16:17:41;;;;;;;8.20;3.80;;;;;;;;;;10389334;28;20034;-85
2023/09/28 16:22:42;;;;;;;7.72;4.40;;;;;;;;;;10388524;28;20026;-80
2023/09/28 16:27:43;;;;;;;6.78;3.97;;;;;;;;;;10384410;28;20124;-83
2023/09/28 16:32:44;;;;;;;6.50;3.80;;;;;;;;;;10386296;28;20022;-85
2023/09/28 16:37:47;;;;;;;9.02;4.97;;;;;;;;;;10393898;28;20037;-85
2023/09/28 16:42:48;;;;;;;6.03;3.90;;;;;;;;;;10412573;28;20041;-83
2023/09/28 16:47:49;;;;;;;5.95;3.78;;;;;;;;;;10425741;28;20069;-84
2023/09/28 16:52:50;;;;;;;6.63;3.60;;;;;;;;;;10423974;28;20100;-83
2023/09/28 16:57:51;;;;;;;5.25;3.60;;;;;;;;;;10382152;28;20083;-84
2023/09/28 17:02:52;;;;;;;4.45;3.20;;;;;;;;;;10384466;28;20367;-84
2023/09/28 17:07:53;;;;;;;5.65;2.90;;;;;;;;;;10379393;28;20033;-84
2023/09/28 17:12:55;;;;;;;5.05;3.72;;;;;;;;;;10376608;28;20018;-85
2023/09/28 17:17:56;;;;;;;5.15;3.50;;;;;;;;;;10376815;28;20026;-85
2023/09/28 17:22:57;;;;;;;5.68;3.47;;;;;;;;;;10376487;28;20033;-83
2023/09/28 17:27:58;;;;;;;4.97;3.45;;;;;;;;;;10379182;28;20037;-82
2023/09/28 17:32:59;;;;;;;6.80;3.80;;;;;;;;;;10379886;28;20339;-82
2023/09/28 17:38:00;;;;;;;10.45;6.25;;;;;;;;;;10377942;28;20021;-83
2023/09/28 17:43:01;;;;;;;18.00;11.52;;;;;;;;;;10379474;28;20164;-82
2023/09/28 17:48:04;;;;;;;8.52;5.85;;;;;;;;;;10378695;28;20033;-82
2023/09/28 17:53:05;;;;;;;7.03;4.60;;;;;;;;;;10379975;28;20044;-82
2023/09/28 17:58:06;;;;;;;5.60;4.32;;;;;;;;;;10427746;22;20037;-85
2023/09/28 18:03:07;;;;;;;10.63;6.70;;;;;;;;;;10457357;28;20498;-84
2023/09/28 18:08:08;;;;;;;10.00;5.95;;;;;;;;;;10449007;28;20044;-85
2023/09/28 18:13:09;;;;;;;14.88;8.20;;;;;;;;;;10450402;28;20021;-85
2023/09/28 18:18:11;;;;;;;9.02;6.35;;;;;;;;;;10466058;28;20053;-85
2023/09/28 18:23:12;;;;;;;8.93;5.80;;;;;;;;;;10449458;28;20017;-85
2023/09/28 18:28:13;;;;;;;8.77;5.88;;;;;;;;;;10464201;28;20021;-84
2023/09/28 18:33:14;;;;;;;6.80;4.90;;;;;;;;;;10464051;28;20044;-84
2023/09/28 18:38:16;;;;;;;7.03;5.13;;;;;;;;;;10447686;28;20121;-85
2023/09/28 18:43:17;;;;;;;7.22;4.68;;;;;;;;;;10449515;28;20116;-86
2023/09/28 18:48:18;;;;;;;8.60;5.03;;;;;;;;;;10465991;28;20017;-85
2023/09/28 18:53:20;;;;;;;8.02;4.63;;;;;;;;;;10449845;28;20120;-85
2023/09/28 18:58:21;;;;;;;9.25;4.95;;;;;;;;;;10452472;28;20074;-85
2023/09/28 19:03:23;;;;;;;8.90;5.10;;;;;;;;;;10452087;28;20124;-85
2023/09/28 19:08:24;;;;;;;8.75;5.57;;;;;;;;;;10450084;28;20017;-85
